Time;durP1;ratioP1;P1;durP2;ratioP2;P2;SDS_P1;SDS_P2;PMS_P1;PMS_P2;Temp;Humidity;BMP_temperature;BMP_pressure;BME280_temperature;BME280_humidity;BME280_pressure;Samples;Min_cycle;Max_cycle;Signal;HPM_P1;HPM_P2
2022/04/24 00:01:27;;;;;;;14.10;7.63;;;;;;;10.78;57.88;100532.81;5009006;28;20045;-75
2022/04/24 00:04:01;;;;;;;13.07;7.50;;;;;;;10.78;58.03;100531.94;5007719;28;20049;-70
2022/04/24 00:06:31;;;;;;;10.55;6.65;;;;;;;10.78;58.03;100532.81;5004639;28;20499;-70
2022/04/24 00:09:00;;;;;;;11.48;6.90;;;;;;;10.76;58.25;100531.91;5006445;28;20050;-71
2022/04/24 00:11:29;;;;;;;12.00;7.32;;;;;;;10.74;58.40;100532.78;5009808;28;20037;-71
2022/04/24 00:13:57;;;;;;;12.35;6.78;;;;;;;10.68;58.89;100528.34;5008998;28;20518;-74
2022/04/24 00:16:28;;;;;;;12.80;6.70;;;;;;;10.65;58.45;100530.94;5009674;28;20049;-74
2022/04/24 00:18:57;;;;;;;11.70;7.18;;;;;;;10.62;58.81;100533.56;5009462;28;20042;-70
2022/04/24 00:21:29;;;;;;;14.82;7.63;;;;;;;10.62;59.10;100530.03;5003084;28;20164;-70
2022/04/24 00:24:00;;;;;;;13.20;6.97;;;;;;;10.53;59.63;100533.47;5008986;28;20073;-71
2022/04/24 00:26:29;;;;;;;11.32;7.28;;;;;;;10.50;59.97;100533.44;5006610;28;20048;-70
2022/04/24 00:29:00;;;;;;;10.43;6.95;;;;;;;10.44;60.71;100530.78;5006439;28;20049;-69
2022/04/24 00:31:28;;;;;;;11.70;7.32;;;;;;;10.43;60.93;100529.88;5007956;28;20124;-70
2022/04/24 00:33:58;;;;;;;12.27;7.55;;;;;;;10.32;61.59;100526.31;5009121;28;20052;-71
2022/04/24 00:36:27;;;;;;;12.35;7.45;;;;;;;10.28;62.02;100526.28;5008104;28;20069;-70
2022/04/24 00:38:57;;;;;;;11.30;7.20;;;;;;;10.20;62.31;100533.19;5008090;28;20077;-71
2022/04/24 00:41:27;;;;;;;12.52;7.45;;;;;;;10.13;62.38;100532.22;5004121;28;20041;-71
2022/04/24 00:43:57;;;;;;;11.10;7.07;;;;;;;10.09;63.51;100522.56;5007518;28;20141;-71
2022/04/24 00:46:40;;;;;;;12.40;7.85;;;;;;;10.04;63.28;100527.75;5004946;28;20099;-70
2022/04/24 00:49:09;;;;;;;12.88;7.47;;;;;;;10.05;63.45;100533.88;5006410;28;20057;-71
2022/04/24 00:51:39;;;;;;;13.10;7.13;;;;;;;9.96;63.91;100529.41;5006399;28;20072;-70
2022/04/24 00:54:08;;;;;;;15.23;8.32;;;;;;;9.96;63.96;100528.53;5003427;28;20058;-71
2022/04/24 00:56:37;;;;;;;13.15;8.10;;;;;;;9.88;64.74;100519.72;5010383;28;20100;-70
2022/04/24 00:59:09;;;;;;;11.70;7.82;;;;;;;9.90;64.72;100518.88;5007516;28;20061;-70
2022/04/24 01:01:38;;;;;;;13.85;8.45;;;;;;;9.84;64.92;100516.19;5007323;28;20058;-70
2022/04/24 01:04:15;;;;;;;12.95;8.45;;;;;;;9.82;64.93;100520.53;5005640;28;20061;-70
2022/04/24 01:06:49;;;;;;;12.68;7.90;;;;;;;9.76;65.50;100520.47;5010252;28;20237;-71
2022/04/24 01:09:20;;;;;;;11.75;7.22;;;;;;;9.70;65.63;100526.50;5008556;28;20095;-74
2022/04/24 01:11:51;;;;;;;14.27;8.15;;;;;;;9.66;66.11;100519.47;5011689;28;20105;-74
2022/04/24 01:14:21;;;;;;;13.45;8.63;;;;;;;9.66;66.45;100518.59;5012427;28;20061;-74
2022/04/24 01:16:50;;;;;;;13.70;8.23;;;;;;;9.61;66.69;100517.66;5017906;28;20084;-74
2022/04/24 01:19:22;;;;;;;14.68;7.88;;;;;;;9.55;67.50;100517.59;5019738;28;20168;-75
2022/04/24 01:21:53;;;;;;;13.68;8.85;;;;;;;9.54;67.23;100523.69;5015639;28;20058;-75
2022/04/24 01:24:22;;;;;;;12.82;8.10;;;;;;;9.46;68.21;100524.47;5017155;28;20308;-76
2022/04/24 01:26:51;;;;;;;16.80;9.10;;;;;;;9.51;67.96;100517.56;5016936;28;21127;-75
2022/04/24 01:29:20;;;;;;;17.45;9.00;;;;;;;9.52;67.39;100519.31;5012759;28;20058;-69
2022/04/24 01:31:52;;;;;;;12.75;8.00;;;;;;;9.60;67.18;100519.41;5011401;28;20143;-71
2022/04/24 01:34:21;;;;;;;15.23;8.55;;;;;;;9.61;67.23;100522.91;5013996;28;20130;-71
2022/04/24 01:36:49;;;;;;;14.93;8.10;;;;;;;9.57;67.26;100521.97;5011371;28;20061;-73
2022/04/24 01:39:22;;;;;;;14.80;8.90;;;;;;;9.56;67.41;100522.84;5012033;28;20058;-70
2022/04/24 01:41:55;;;;;;;14.55;8.95;;;;;;;9.54;67.75;100527.19;5011756;28;20053;-71
2022/04/24 01:44:23;;;;;;;14.43;9.10;;;;;;;9.53;68.02;100528.03;5007094;28;20050;-70
2022/04/24 01:46:53;;;;;;;13.13;8.45;;;;;;;9.45;68.50;100521.84;5008704;28;20064;-71
2022/04/24 01:49:27;;;;;;;15.43;9.98;;;;;;;9.45;68.94;100527.94;5006962;28;20116;-70
2022/04/24 01:51:57;;;;;;;14.90;9.18;;;;;;;9.39;69.08;100527.88;5010475;28;20107;-71
2022/04/24 01:54:29;;;;;;;14.95;9.52;;;;;;;9.28;70.24;100533.84;5005896;28;20437;-69
2022/04/24 01:56:59;;;;;;;17.42;11.05;;;;;;;9.19;71.68;100537.22;5013990;28;20099;-70
2022/04/24 01:59:27;;;;;;;18.20;10.80;;;;;;;9.16;72.40;100531.94;5010691;28;20056;-70
2022/04/24 02:01:58;;;;;;;16.80;10.95;;;;;;;9.15;72.32;100535.41;5008369;28;20148;-70
2022/04/24 02:04:27;;;;;;;19.98;10.55;;;;;;;9.12;73.89;100530.13;5010357;28;20397;-71
2022/04/24 02:06:57;;;;;;;17.25;11.00;;;;;;;9.10;73.62;100531.84;5008590;28;20396;-74
2022/04/24 02:09:27;;;;;;;19.00;11.95;;;;;;;9.01;74.58;100536.94;5008970;28;20064;-76
2022/04/24 02:11:55;;;;;;;18.27;10.90;;;;;;;8.98;75.18;100532.56;5007016;28;20145;-75
2022/04/24 02:14:24;;;;;;;20.35;12.23;;;;;;;8.92;75.80;100531.59;5008600;28;20391;-76
2022/04/24 02:16:54;;;;;;;19.85;11.73;;;;;;;8.90;75.99;100535.91;5008792;28;20049;-74
2022/04/24 02:19:24;;;;;;;22.20;12.88;;;;;;;8.90;76.65;100539.41;5009156;28;20551;-75
2022/04/24 02:21:53;;;;;;;19.98;12.82;;;;;;;8.88;76.98;100545.47;5007969;28;20061;-75
2022/04/24 02:24:23;;;;;;;22.00;12.60;;;;;;;8.90;77.16;100539.41;5011557;28;20053;-70
2022/04/24 02:26:52;;;;;;;21.38;13.10;;;;;;;8.84;78.18;100534.97;5006801;28;20054;-70
2022/04/24 02:29:20;;;;;;;23.77;12.98;;;;;;;8.87;77.93;100538.47;5009056;28;20127;-70
2022/04/24 02:31:52;;;;;;;25.63;15.40;;;;;;;8.87;78.49;100533.25;5012479;28;20057;-70
2022/04/24 02:34:20;;;;;;;22.58;13.35;;;;;;;8.87;78.48;100535.88;5011881;28;20065;-74
2022/04/24 02:36:51;;;;;;;22.98;13.63;;;;;;;8.89;78.81;100542.00;5015378;28;20053;-74
2022/04/24 02:39:19;;;;;;;22.73;13.82;;;;;;;8.84;79.37;100534.97;5007191;28;20111;-74
2022/04/24 02:41:52;;;;;;;23.13;13.38;;;;;;;8.95;79.20;100539.47;5008611;28;20054;-75
2022/04/24 02:44:22;;;;;;;26.38;14.32;;;;;;;8.87;79.47;100539.34;5008878;28;20061;-75
2022/04/24 02:46:50;;;;;;;23.98;12.73;;;;;;;8.92;79.34;100542.03;5013886;28;20498;-74
2022/04/24 02:49:22;;;;;;;22.60;13.50;;;;;;;8.82;79.76;100541.03;5010251;28;20056;-74
2022/04/24 02:51:49;;;;;;;23.67;13.25;;;;;;;8.81;80.06;100537.53;5009961;28;20068;-74
2022/04/24 02:54:21;;;;;;;23.77;14.23;;;;;;;8.75;79.87;100540.03;5011402;28;20229;-74
2022/04/24 02:56:49;;;;;;;24.35;14.02;;;;;;;8.77;80.34;100535.72;5007126;28;20076;-75
2022/04/24 02:59:21;;;;;;;23.27;13.75;;;;;;;8.79;80.40;100543.59;5007494;28;20057;-75
2022/04/24 03:01:49;;;;;;;24.75;14.48;;;;;;;8.74;80.87;100543.50;5012164;28;20510;-74
2022/04/24 03:04:17;;;;;;;25.15;13.85;;;;;;;8.73;80.69;100538.25;5011561;28;20057;-74
2022/04/24 03:06:47;;;;;;;21.58;13.65;;;;;;;8.75;80.45;100545.28;5009112;28;20119;-74
2022/04/24 03:09:16;;;;;;;23.48;14.10;;;;;;;8.73;80.64;100547.00;5008997;28;20042;-75
2022/04/24 03:11:44;;;;;;;26.60;13.80;;;;;;;8.70;80.85;100541.72;5009655;28;20076;-74
2022/04/24 03:14:12;;;;;;;24.85;13.73;;;;;;;8.75;80.99;100545.28;5011902;28;20136;-74
2022/04/24 03:16:43;;;;;;;23.88;13.27;;;;;;;8.71;80.88;100538.25;5013627;28;20049;-74
2022/04/24 03:19:11;;;;;;;26.83;14.43;;;;;;;8.64;81.42;100545.97;5009932;28;20053;-74
2022/04/24 03:21:39;;;;;;;23.83;14.00;;;;;;;8.56;82.25;100538.00;5008478;28;20048;-74
2022/04/24 03:24:07;;;;;;;26.90;14.38;;;;;;;8.57;81.99;100542.38;5005650;28;20547;-75
2022/04/24 03:26:35;;;;;;;24.15;13.90;;;;;;;8.56;82.14;100540.59;5009072;28;20575;-75
2022/04/24 03:29:04;;;;;;;27.05;13.77;;;;;;;8.57;81.96;100544.09;5008055;28;20136;-75
2022/04/24 03:31:34;;;;;;;25.58;14.27;;;;;;;8.50;82.46;100551.84;5011159;28;20076;-75
2022/04/24 03:34:05;;;;;;;25.65;14.80;;;;;;;8.46;82.42;100552.63;5013892;28;20567;-74
2022/04/24 03:36:33;;;;;;;30.17;14.63;;;;;;;8.37;83.08;100541.13;5009128;28;20052;-74
2022/04/24 03:39:01;;;;;;;27.35;14.90;;;;;;;8.32;83.22;100542.78;5007073;28;20061;-75
2022/04/24 03:41:29;;;;;;;27.90;14.63;;;;;;;8.26;83.51;100540.94;5008390;28;20057;-74
2022/04/24 03:43:57;;;;;;;24.42;14.10;;;;;;;8.29;83.42;100534.91;5009433;28;20437;-74
2022/04/24 03:46:28;;;;;;;25.98;13.40;;;;;;;8.22;83.85;100530.41;5006929;28;20718;-70
2022/04/24 03:48:57;;;;;;;24.38;13.40;;;;;;;8.20;84.01;100535.63;5005881;28;20137;-71
2022/04/24 03:51:30;;;;;;;24.83;13.85;;;;;;;8.15;84.22;100534.66;5009113;28;20057;-71
2022/04/24 03:53:58;;;;;;;24.30;14.43;;;;;;;8.12;84.40;100524.16;5006111;28;20046;-70
2022/04/24 03:56:31;;;;;;;21.55;12.43;;;;;;;8.10;84.51;100525.84;5007236;28;20073;-71
2022/04/24 03:58:59;;;;;;;21.77;12.20;;;;;;;8.06;84.78;100537.09;5011121;28;20474;-71
2022/04/24 04:01:27;;;;;;;26.80;15.02;;;;;;;8.04;84.81;100531.84;5007687;28;20853;-70
2022/04/24 04:03:57;;;;;;;27.67;14.35;;;;;;;7.95;85.40;100539.50;5006459;28;20045;-70
2022/04/24 04:06:28;;;;;;;23.15;13.40;;;;;;;7.97;85.16;100540.41;5009464;28;20104;-70
2022/04/24 04:08:58;;;;;;;25.13;13.50;;;;;;;7.91;85.34;100540.31;5011458;28;20074;-71
2022/04/24 04:11:29;;;;;;;29.75;13.65;;;;;;;7.89;85.46;100547.22;5009941;28;20054;-71
2022/04/24 04:14:00;;;;;;;24.52;13.68;;;;;;;7.85;85.80;100532.34;5011588;28;20085;-70
2022/04/24 04:16:28;;;;;;;26.00;13.48;;;;;;;7.86;85.74;100535.00;5010725;28;20057;-70
2022/04/24 04:18:57;;;;;;;26.13;13.93;;;;;;;7.87;85.53;100546.31;5006903;28;20803;-74
2022/04/24 04:21:27;;;;;;;26.05;14.27;;;;;;;7.82;85.88;100550.56;5011591;28;20042;-76
2022/04/24 04:23:56;;;;;;;23.08;13.57;;;;;;;7.79;85.97;100553.13;5012738;28;20120;-75
2022/04/24 04:26:27;;;;;;;23.60;12.73;;;;;;;7.78;86.00;100548.75;5013985;28;20052;-75
2022/04/24 04:28:55;;;;;;;27.48;14.35;;;;;;;7.72;86.02;100559.06;5016779;28;20896;-74
2022/04/24 04:31:23;;;;;;;26.27;13.48;;;;;;;7.68;86.41;100552.03;5013325;28;20115;-74
2022/04/24 04:33:52;;;;;;;24.13;12.95;;;;;;;7.70;86.13;100551.19;5018520;28;20077;-74
2022/04/24 04:36:20;;;;;;;27.45;14.23;;;;;;;7.70;86.18;100555.53;5016662;28;20112;-74
2022/04/24 04:38:49;;;;;;;26.00;13.38;;;;;;;7.71;86.26;100563.41;5013592;28;20112;-75
2022/04/24 04:41:17;;;;;;;25.40;13.23;;;;;;;7.67;86.12;100558.09;5014989;28;20193;-74
2022/04/24 04:43:48;;;;;;;24.55;13.15;;;;;;;7.65;86.37;100549.34;5014804;28;20052;-75
2022/04/24 04:46:17;;;;;;;23.42;13.32;;;;;;;7.67;86.28;100560.69;5014135;28;20049;-70
2022/04/24 04:48:49;;;;;;;30.45;14.25;;;;;;;7.65;86.44;100559.78;5003580;28;20934;-69
2022/04/24 04:51:17;;;;;;;24.38;12.98;;;;;;;7.64;86.59;100561.50;5004973;28;20069;-70
2022/04/24 04:53:46;;;;;;;24.80;13.85;;;;;;;7.67;86.21;100566.78;5007900;28;20045;-71
2022/04/24 04:56:15;;;;;;;26.42;11.98;;;;;;;7.67;86.41;100571.13;5004967;28;20049;-70
2022/04/24 04:58:44;;;;;;;25.92;12.80;;;;;;;7.68;86.45;100578.13;5003921;28;20062;-71
2022/04/24 05:01:19;;;;;;;25.90;13.38;;;;;;;7.76;86.16;100571.31;5005787;28;20129;-70
2022/04/24 05:03:49;;;;;;;21.05;12.80;;;;;;;7.77;85.90;100573.97;5007452;28;20077;-71
2022/04/24 05:06:21;;;;;;;22.20;13.20;;;;;;;7.77;85.81;100573.09;5008611;28;20108;-70
2022/04/24 05:08:49;;;;;;;20.30;11.95;;;;;;;7.80;85.59;100580.97;5006873;28;20532;-72
2022/04/24 05:11:17;;;;;;;23.95;12.98;;;;;;;7.83;85.34;100579.31;5007610;28;20046;-74
2022/04/24 05:13:45;;;;;;;25.63;12.48;;;;;;;7.85;85.35;100584.56;5006583;28;20161;-74
2022/04/24 05:16:15;;;;;;;23.30;12.32;;;;;;;7.95;85.03;100593.47;5008345;28;20154;-75
2022/04/24 05:18:48;;;;;;;24.60;13.25;;;;;;;7.97;84.88;100589.16;5010024;28;20653;-76
2022/04/24 05:21:20;;;;;;;23.63;13.05;;;;;;;8.07;84.36;100596.31;5007643;28;20041;-74
2022/04/24 05:23:52;;;;;;;24.67;12.10;;;;;;;8.12;84.07;100592.06;5005806;28;20108;-74
2022/04/24 05:26:20;;;;;;;24.40;11.82;;;;;;;8.20;83.51;100601.81;5008228;28;20757;-75
2022/04/24 05:28:49;;;;;;;23.60;12.45;;;;;;;8.28;83.15;100591.50;5004918;28;20057;-70
2022/04/24 05:31:17;;;;;;;18.30;11.45;;;;;;;8.37;82.34;100596.03;5005109;28;20052;-70
2022/04/24 05:33:50;;;;;;;23.10;12.27;;;;;;;8.47;81.45;100590.09;5006872;28;20054;-70
2022/04/24 05:36:21;;;;;;;20.33;11.70;;;;;;;8.63;81.11;100597.38;5006180;28;20484;-71
2022/04/24 05:38:49;;;;;;;20.45;11.63;;;;;;;8.74;79.89;100598.41;5003996;28;20057;-72
2022/04/24 05:41:20;;;;;;;21.90;11.52;;;;;;;8.91;78.67;100597.81;5008437;28;20114;-70
2022/04/24 05:43:51;;;;;;;20.50;11.43;;;;;;;9.00;78.13;100603.19;5005965;28;20062;-71
2022/04/24 05:46:22;;;;;;;22.30;11.90;;;;;;;9.09;77.39;100592.88;5009045;28;20139;-74
2022/04/24 05:48:52;;;;;;;23.70;11.23;;;;;;;9.19;76.52;100605.25;5003871;28;20691;-70
2022/04/24 05:51:20;;;;;;;21.63;12.43;;;;;;;9.33;76.11;100598.47;5006214;28;20653;-70
2022/04/24 05:53:51;;;;;;;23.92;12.27;;;;;;;9.39;75.08;100609.00;5006435;28;20078;-71
2022/04/24 05:56:20;;;;;;;22.35;11.70;;;;;;;9.44;74.88;100606.44;5007096;28;20538;-70
2022/04/24 05:58:53;;;;;;;19.20;11.70;;;;;;;9.61;73.72;100610.19;5013111;28;20065;-75
2022/04/24 06:01:24;;;;;;;23.17;12.30;;;;;;;9.79;73.49;100614.78;5006662;28;20045;-71
2022/04/24 06:03:59;;;;;;;23.00;12.20;;;;;;;9.82;72.41;100620.06;5012491;28;20153;-71
2022/04/24 06:06:31;;;;;;;19.25;11.13;;;;;;;10.03;71.92;100616.81;5012980;28;20491;-75
2022/04/24 06:08:59;;;;;;;18.52;10.55;;;;;;;10.08;71.23;100610.78;5013388;28;20058;-69
2022/04/24 06:11:27;;;;;;;25.00;11.25;;;;;;;10.16;70.57;100617.00;5009083;28;20053;-72
2022/04/24 06:13:57;;;;;;;20.48;10.95;;;;;;;10.41;70.47;100625.13;5009178;28;20119;-70
2022/04/24 06:16:29;;;;;;;18.73;10.32;;;;;;;10.55;69.20;100625.25;5010418;28;20065;-76
2022/04/24 06:18:59;;;;;;;19.92;10.95;;;;;;;10.71;68.38;100622.81;5010316;28;20054;-71
2022/04/24 06:21:27;;;;;;;20.23;10.90;;;;;;;10.71;68.30;100628.06;5009729;28;20190;-74
2022/04/24 06:23:57;;;;;;;18.27;11.38;;;;;;;10.74;67.37;100622.81;5011771;28;20486;-72
2022/04/24 06:26:27;;;;;;;23.80;11.73;;;;;;;10.85;67.03;100624.66;5009789;28;20547;-70
2022/04/24 06:28:56;;;;;;;20.00;11.32;;;;;;;10.97;66.35;100619.53;5009057;28;20058;-71
2022/04/24 06:31:27;;;;;;;22.92;11.45;;;;;;;11.16;65.66;100621.44;5009776;28;20149;-74
2022/04/24 06:33:58;;;;;;;19.70;11.10;;;;;;;11.23;65.37;100619.72;5009862;28;20057;-71
2022/04/24 06:36:30;;;;;;;21.35;11.70;;;;;;;11.13;65.54;100619.66;5006594;28;20057;-78
2022/04/24 06:39:00;;;;;;;21.20;11.52;;;;;;;11.31;64.66;100626.78;5012983;28;20085;-71
2022/04/24 06:41:28;;;;;;;18.58;11.07;;;;;;;11.22;64.21;100624.09;5006606;28;20552;-71
2022/04/24 06:43:59;;;;;;;21.25;12.10;;;;;;;11.41;64.46;100619.84;5005905;28;20521;-70
2022/04/24 06:46:27;;;;;;;21.63;11.52;;;;;;;11.76;64.13;100626.16;5013134;28;20041;-76
2022/04/24 06:48:56;;;;;;;19.75;11.27;;;;;;;11.67;63.50;100619.97;5007963;28;20100;-75
2022/04/24 06:51:24;;;;;;;18.30;11.23;;;;;;;11.82;63.20;100627.09;5008978;28;20060;-72
2022/04/24 06:53:57;;;;;;;21.42;11.55;;;;;;;11.91;62.49;100625.38;5012270;28;20058;-70
2022/04/24 06:56:28;;;;;;;22.05;12.18;;;;;;;11.96;62.24;100626.28;5012035;28;20048;-75
2022/04/24 06:58:59;;;;;;;20.70;10.75;;;;;;;11.89;62.22;100629.75;5010175;28;20532;-71
2022/04/24 07:01:27;;;;;;;19.10;10.82;;;;;;;11.98;61.50;100632.41;5012700;28;20060;-71
2022/04/24 07:03:55;;;;;;;21.85;11.23;;;;;;;12.25;61.32;100630.78;5008700;28;20136;-71
2022/04/24 07:06:24;;;;;;;22.17;11.32;;;;;;;12.30;60.85;100626.41;5007824;28;20141;-72
2022/04/24 07:08:56;;;;;;;20.77;11.38;;;;;;;12.50;60.40;100615.91;5011850;28;20148;-75
2022/04/24 07:11:25;;;;;;;20.05;11.30;;;;;;;12.54;59.99;100626.44;5014300;28;20161;-74
2022/04/24 07:13:53;;;;;;;20.80;12.02;;;;;;;12.34;60.09;100631.66;5009896;28;20054;-75
2022/04/24 07:16:29;;;;;;;22.35;11.50;;;;;;;12.68;60.05;100627.31;5010944;28;20056;-76
2022/04/24 07:18:57;;;;;;;20.75;10.02;;;;;;;12.70;58.89;100641.38;5012776;28;20053;-70
2022/04/24 07:21:27;;;;;;;17.73;10.68;;;;;;;12.95;58.97;100638.75;5014920;28;20120;-72
2022/04/24 07:23:56;;;;;;;21.77;11.95;;;;;;;12.91;58.31;100637.88;5010926;28;20115;-69
2022/04/24 07:26:27;;;;;;;22.35;11.80;;;;;;;12.96;58.26;100633.50;5011789;28;20072;-71
2022/04/24 07:28:56;;;;;;;21.42;11.13;;;;;;;12.91;57.71;100637.88;5012123;28;20104;-72
2022/04/24 07:31:26;;;;;;;18.75;11.10;;;;;;;13.08;57.73;100637.88;5012196;28;20058;-72
2022/04/24 07:33:58;;;;;;;21.00;10.57;;;;;;;13.23;57.75;100632.66;5008072;28;20057;-72
2022/04/24 07:36:26;;;;;;;18.67;11.15;;;;;;;13.58;56.79;100631.69;5011157;28;20100;-71
2022/04/24 07:38:58;;;;;;;20.38;11.75;;;;;;;13.39;56.54;100637.00;5012054;28;20049;-72
2022/04/24 07:41:27;;;;;;;16.65;10.40;;;;;;;13.58;56.24;100644.84;5013485;28;20375;-76
2022/04/24 07:43:57;;;;;;;19.73;10.80;;;;;;;13.75;56.01;100640.41;5014706;28;20089;-71
2022/04/24 07:46:27;;;;;;;19.60;10.02;;;;;;;13.82;55.84;100647.44;5009851;28;20482;-72
2022/04/24 07:48:55;;;;;;;21.55;11.57;;;;;;;13.42;56.08;100646.66;5014624;28;20061;-70
2022/04/24 07:51:23;;;;;;;19.83;11.15;;;;;;;13.76;55.71;100644.81;5010125;28;20088;-70
2022/04/24 07:53:52;;;;;;;19.58;11.18;;;;;;;14.15;54.80;100646.44;5015082;28;20041;-71
2022/04/24 07:56:25;;;;;;;21.67;11.93;;;;;;;14.01;54.70;100648.25;5013002;28;20057;-70
2022/04/24 07:58:53;;;;;;;19.85;10.38;;;;;;;13.97;54.98;100646.50;5009396;28;20459;-72
2022/04/24 08:01:25;;;;;;;18.10;10.32;;;;;;;14.34;53.98;100647.22;5012927;28;20058;-71
2022/04/24 08:03:53;;;;;;;20.67;10.45;;;;;;;14.42;53.47;100653.38;5009539;28;20177;-70
2022/04/24 08:06:23;;;;;;;20.23;11.30;;;;;;;14.24;53.77;100654.31;5008374;28;20045;-70
2022/04/24 08:08:53;;;;;;;17.20;11.00;;;;;;;14.86;52.41;100657.47;5007081;28;20061;-71
2022/04/24 08:11:21;;;;;;;21.13;10.68;;;;;;;14.40;52.39;100663.91;5011797;28;20050;-76
2022/04/24 08:13:51;;;;;;;17.40;10.18;;;;;;;14.48;52.42;100669.16;5009848;28;20056;-76
2022/04/24 08:16:26;;;;;;;19.38;11.38;;;;;;;14.58;51.98;100665.56;5011254;28;20053;-73
2022/04/24 08:18:55;;;;;;;17.98;10.85;;;;;;;14.59;52.19;100659.41;5006508;28;20062;-71
2022/04/24 08:21:23;;;;;;;21.33;11.82;;;;;;;14.84;52.30;100669.81;5009483;28;20065;-71
2022/04/24 08:23:53;;;;;;;18.17;10.32;;;;;;;15.13;51.69;100662.53;5004331;28;20502;-70
2022/04/24 08:26:26;;;;;;;18.55;10.55;;;;;;;15.41;50.71;100664.94;5008821;28;20463;-71
2022/04/24 08:28:58;;;;;;;20.58;11.50;;;;;;;15.18;50.76;100660.75;5008839;28;20058;-72
2022/04/24 08:31:27;;;;;;;17.83;10.40;;;;;;;15.04;51.04;100671.41;5009525;28;20324;-70
2022/04/24 08:33:57;;;;;;;19.23;10.93;;;;;;;15.48;51.21;100674.56;5005041;28;20640;-71
2022/04/24 08:36:27;;;;;;;19.08;10.68;;;;;;;16.06;50.59;100658.97;5006818;28;20053;-76
2022/04/24 08:38:55;;;;;;;18.48;10.27;;;;;;;16.00;50.02;100670.50;5010416;28;20233;-71
2022/04/24 08:41:28;;;;;;;18.45;11.18;;;;;;;16.18;49.37;100668.53;5008250;28;20077;-72
2022/04/24 08:44:02;;;;;;;18.17;10.75;;;;;;;16.12;49.87;100665.94;5010904;28;20104;-70
2022/04/24 08:46:31;;;;;;;17.52;11.38;;;;;;;15.99;49.55;100681.97;5015003;28;20119;-71
2022/04/24 08:49:01;;;;;;;22.08;11.43;;;;;;;16.05;49.55;100682.78;5008281;28;20069;-74
2022/04/24 08:51:30;;;;;;;17.83;11.18;;;;;;;16.10;48.82;100683.63;5009288;28;20611;-75
2022/04/24 08:53:58;;;;;;;18.70;10.63;;;;;;;15.97;48.92;100682.88;5009362;28;20054;-75
2022/04/24 08:56:29;;;;;;;19.35;11.00;;;;;;;16.16;48.64;100678.25;5007983;28;20142;-75
2022/04/24 08:59:01;;;;;;;19.05;10.45;;;;;;;16.05;48.26;100680.16;5004475;28;20087;-75
2022/04/24 09:01:32;;;;;;;18.83;11.38;;;;;;;15.99;48.92;100686.38;5004835;28;20058;-75
2022/04/24 09:04:01;;;;;;;16.95;10.57;;;;;;;16.23;49.14;100687.88;5009364;28;20062;-75
2022/04/24 09:06:29;;;;;;;18.02;10.07;;;;;;;16.39;48.08;100675.31;5007713;28;20982;-75
2022/04/24 09:09:07;;;;;;;18.25;10.18;;;;;;;16.23;47.75;100674.63;5007900;28;20438;-76
2022/04/24 09:11:35;;;;;;;18.33;11.60;;;;;;;16.19;47.66;100686.16;5012785;28;20042;-75
2022/04/24 09:14:24;;;;;;;17.83;10.20;;;;;;;16.38;47.94;100687.66;5006971;28;20062;-74
2022/04/24 09:16:55;;;;;;;18.10;10.85;;;;;;;16.29;47.87;100680.72;5009830;28;20073;-71
2022/04/24 09:19:29;;;;;;;17.48;11.15;;;;;;;16.49;47.52;100680.47;5003516;28;20050;-71
2022/04/24 09:22:02;;;;;;;;;;;;;;;16.75;47.73;100681.88;5009192;28;20519;-71
2022/04/24 09:24:42;;;;;;;18.13;10.00;;;;;;;17.16;47.23;100683.91;5008109;28;19929;-73
2022/04/24 09:27:11;;;;;;;21.17;11.15;;;;;;;16.92;47.56;100687.81;5006379;28;20045;-71
2022/04/24 09:29:51;;;;;;;19.17;10.93;;;;;;;16.88;47.47;100686.97;5006686;28;20187;-74
2022/04/24 09:32:20;;;;;;;17.38;10.15;;;;;;;17.10;46.93;100687.53;5004974;28;20100;-77
2022/04/24 09:34:50;;;;;;;16.80;10.63;;;;;;;17.36;46.70;100694.19;5012663;28;20050;-74
2022/04/24 09:37:20;;;;;;;18.45;10.52;;;;;;;17.13;46.00;100703.38;5008237;28;20045;-72
2022/04/24 09:39:54;;;;;;;17.95;10.68;;;;;;;17.07;46.04;100698.16;5012759;28;20053;-73
2022/04/24 09:42:28;;;;;;;18.67;10.57;;;;;;;17.40;45.51;100690.56;5009811;28;20145;-74
2022/04/24 09:45:01;;;;;;;17.80;9.80;;;;;;;17.48;45.66;100689.53;5007611;28;20172;-72
2022/04/24 09:48:00;;;;;;;17.15;9.63;;;;;;;17.74;44.37;100697.03;5008981;28;20082;-73
2022/04/24 09:50:29;;;;;;;18.00;10.30;;;;;;;17.93;45.24;100695.78;5013590;28;20521;-74
2022/04/24 09:53:02;;;;;;;15.43;10.52;;;;;;;17.94;45.25;100700.19;5012353;28;20067;-76
2022/04/24 09:55:31;;;;;;;16.73;10.03;;;;;;;17.77;45.71;100691.66;5009664;28;20045;-75
2022/04/24 09:58:02;;;;;;;18.23;10.63;;;;;;;17.38;46.07;100703.84;5009541;28;20512;-74
2022/04/24 10:00:33;;;;;;;19.65;10.60;;;;;;;17.75;45.87;100693.47;5013098;28;20043;-72
2022/04/24 10:03:02;;;;;;;17.15;10.82;;;;;;;17.76;46.25;100695.22;5009251;28;20071;-71
2022/04/24 10:05:31;;;;;;;17.70;10.07;;;;;;;17.85;46.20;100694.19;5014507;28;20053;-71
2022/04/24 10:08:02;;;;;;;17.25;9.77;;;;;;;17.81;45.23;100698.66;5012840;28;20135;-75
2022/04/24 10:10:30;;;;;;;18.45;10.15;;;;;;;17.84;45.17;100695.09;5012842;28;20132;-75
2022/04/24 10:13:01;;;;;;;22.17;10.30;;;;;;;17.91;45.61;100696.72;5009202;28;20064;-76
2022/04/24 10:15:33;;;;;;;19.23;10.30;;;;;;;18.16;44.95;100703.28;5012503;28;20509;-75
2022/04/24 10:18:41;;;;;;;19.15;10.40;;;;;;;17.96;44.96;100697.50;5008752;28;20417;-75
2022/04/24 10:21:40;;;;;;;19.85;10.88;;;;;;;17.78;45.90;100700.50;5012617;28;20077;-75
2022/04/24 10:24:10;;;;;;;18.42;9.98;;;;;;;18.08;45.07;100705.22;5013569;28;20350;-75
2022/04/24 10:26:39;;;;;;;18.05;10.65;;;;;;;18.42;44.35;100696.59;5015887;28;20076;-75
2022/04/24 10:29:09;;;;;;;18.75;10.82;;;;;;;18.66;44.48;100697.88;5011486;28;20311;-76
2022/04/24 10:31:49;;;;;;;17.92;9.48;;;;;;;18.56;43.51;100706.00;5010919;28;20104;-74
2022/04/24 10:34:23;;;;;;;16.85;10.27;;;;;;;18.56;43.67;100702.47;5012459;28;20104;-75
2022/04/24 10:36:58;;;;;;;16.75;9.80;;;;;;;18.40;44.21;100706.34;5014837;28;20856;-71
2022/04/24 10:39:33;;;;;;;16.77;9.32;;;;;;;18.64;44.67;100702.34;5012019;28;20081;-71
2022/04/24 10:42:07;;;;;;;21.20;10.23;;;;;;;18.74;44.90;100706.50;5014542;28;20045;-71
2022/04/24 10:44:35;;;;;;;18.00;10.05;;;;;;;18.93;43.91;100706.06;5012702;28;20525;-71
2022/04/24 10:47:16;;;;;;;16.42;9.85;;;;;;;18.67;43.05;100720.88;5007834;28;20050;-71
2022/04/24 10:49:50;;;;;;;15.35;9.85;;;;;;;18.87;43.22;100707.97;5011457;28;20073;-71
2022/04/24 10:52:19;;;;;;;19.42;9.73;;;;;;;18.21;43.25;100713.81;5013228;28;20092;-71
2022/04/24 10:54:52;;;;;;;18.35;10.13;;;;;;;18.09;43.00;100714.06;5014662;28;20072;-71
2022/04/24 10:57:22;;;;;;;16.83;9.43;;;;;;;18.43;44.03;100708.94;5010967;28;20454;-70
2022/04/24 10:59:52;;;;;;;18.05;9.32;;;;;;;18.32;43.49;100703.00;5012916;28;20058;-71
2022/04/24 11:02:27;;;;;;;13.32;9.73;;;;;;;18.64;43.43;100702.34;5012270;28;20585;-70
2022/04/24 11:05:02;;;;;;;17.60;10.25;;;;;;;18.78;42.93;100703.75;5015241;28;20056;-71
2022/04/24 11:07:31;;;;;;;16.30;10.25;;;;;;;18.68;43.06;100702.25;5010637;28;20092;-71
2022/04/24 11:10:06;;;;;;;16.83;9.98;;;;;;;18.80;43.14;100686.00;5016720;28;20513;-71
2022/04/24 11:12:35;;;;;;;18.67;11.40;;;;;;;18.79;43.69;100691.34;5015443;28;20061;-71
2022/04/24 11:15:05;;;;;;;17.33;10.25;;;;;;;18.99;43.71;100694.41;5013703;28;20054;-71
2022/04/24 11:17:35;;;;;;;16.25;9.25;;;;;;;19.04;42.62;100697.84;5012668;28;20053;-71
2022/04/24 11:20:08;;;;;;;17.05;9.75;;;;;;;18.29;43.25;100695.97;5012945;28;20058;-77
2022/04/24 11:22:48;;;;;;;14.52;9.15;;;;;;;18.74;43.17;100699.41;5016850;28;20049;-76
2022/04/24 11:25:20;;;;;;;14.88;9.13;;;;;;;18.79;42.90;100692.22;5015600;28;20065;-76
2022/04/24 11:27:51;;;;;;;17.48;9.88;;;;;;;18.78;42.87;100695.78;5014328;28;20108;-75
2022/04/24 11:30:22;;;;;;;13.65;9.23;;;;;;;18.59;42.90;100697.97;5009538;28;20647;-75